Cosco Melbourne — V7IF5 — position and weather

sailwx.info

Track history (hours):
 
Tides and Currents Weather Stations Pressure Air Temp Water Temp Dewpoint Dewpoint Depression Visibility Wind Speed Wind Dir Waves Ship Positions

Cosco Melbourne

Last reported at 2014-Sep-24 01:29 UTC. Time now 2014-Oct-02 10:27 UTC.
Position N 32°04' W 080°57'.
Warning: this ship's position is 8 days out of date.

Type: Ship (hazmat cat A). MMSI: 538002366.

Date/timePositionNaut miles runAvg speedWind from/ knotsBaromVisibWave heightAir tempDewpointWater temp
2014-Sep-24 01:29N 32°04' W 080°57'7 7.3
2014-Sep-24 00:33N 32°05' W 081°05'4 3.8
2014-Sep-23 23:28N 32°08' W 081°09'0 0.0
2014-Sep-23 22:19N 32°08' W 081°09'0 0.0
2014-Sep-23 20:16N 32°08' W 081°09'0 0.0
2014-Sep-23 14:28N 32°08' W 081°09'3 3.4
2014-Sep-23 13:33N 32°06' W 081°06'7 6.7
2014-Sep-23 12:33N 32°05' W 080°59'38410.0
2014-Sep-21 22:14N 36°39' W 075°33'1117.0
2014-Sep-21 21:33N 36°47' W 075°43'1515.1
2014-Sep-21 20:33N 36°56' W 075°59'1716.3
2014-Sep-21 19:32N 36°59' W 076°19'6 1.2
2014-Sep-21 14:28N 36°53' W 076°21'0 0.0
2014-Sep-21 09:26N 36°53' W 076°21'5 5.9
2014-Sep-21 08:32N 36°58' W 076°20'1313.6
2014-Sep-21 07:33N 36°58' W 076°04'10 9.5
2014-Sep-21 06:33N 36°53' W 075°53'1211.1
2014-Sep-21 05:31N 36°51' W 075°39'0 0.0
2014-Sep-19 17:04N 36°51' W 075°39'162 7.1
2014-Sep-18 18:18N 39°11' W 073°55'1216.3
2014-Sep-18 17:31N 39°23' W 073°54'1516.0
2014-Sep-18 16:33N 39°39' W 073°53'2316.1
2014-Sep-18 15:08N 40°01' W 073°52'1018.0
2014-Sep-18 14:33N 40°12' W 073°50'1615.7
2014-Sep-18 13:34N 40°27' W 073°51'1515.1
2014-Sep-18 12:33N 40°39' W 074°04'4 3.6
2014-Sep-18 11:33N 40°41' W 074°08'1 0.7
2014-Sep-18 10:29N 40°41' W 074°09'18 0.9
2014-Sep-17 13:20N 40°28' W 073°52'4 4.8
2014-Sep-17 12:29N 40°29' W 073°47'0 0.0
2014-Sep-17 11:32N 40°29' W 073°47'0 0.0
2014-Sep-17 10:31N 40°29' W 073°47'0 0.0
2014-Sep-17 09:19N 40°29' W 073°47'3 1.0
2014-Sep-17 06:33N 40°28' W 073°44'1413.3
2014-Sep-17 05:31N 40°28' W 073°25'1313.6
2014-Sep-17 04:33N 40°30' W 073°08'1413.8
2014-Sep-17 03:33N 40°30' W 072°50'1613.6
2014-Sep-17 02:24N 40°31' W 072°29'1113.6
2014-Sep-17 01:33N 40°31' W 072°14'1413.7
2014-Sep-17 00:33N 40°31' W 071°56'1413.3
2014-Sep-16 23:31N 40°32' W 071°38'1413.5
2014-Sep-16 22:31N 40°32' W 071°20'1413.6
2014-Sep-16 21:27N 40°32' W 071°01'9 7.0
2014-Sep-16 20:08N 40°33' W 070°49'711.9
2014-Sep-16 19:32N 40°33' W 070°40'1513.3
2014-Sep-16 18:24N 40°33' W 070°20'1113.0
2014-Sep-16 17:32N 40°34' W 070°05'1313.5
2014-Sep-16 16:33N 40°34' W 069°48'1413.8
2014-Sep-16 15:33N 40°34' W 069°30'1413.8
2014-Sep-16 14:32N 40°35' W 069°11'1413.6
2014-Sep-16 13:31N 40°33' W 068°53'1313.3
2014-Sep-16 12:33N 40°32' W 068°36'  
Track history (hours):
 
Tides and Currents Weather Stations Pressure Air Temp Water Temp Dewpoint Dewpoint Depression Visibility Wind Speed Wind Dir Waves Ship Positions

Cosco Melbourne

Last reported at 2014-Sep-24 01:29 UTC. Time now 2014-Oct-02 10:27 UTC.
Position N 32°04' W 080°57'.
Warning: this ship's position is 8 days out of date.

Type: Ship (hazmat cat A). MMSI: 538002366.

Date/timePositionNaut miles runAvg speedWind from/ knotsBaromVisibWave heightAir tempDewpointWater temp
2014-Sep-24 01:29N 32°04' W 080°57'7 7.3
2014-Sep-24 00:33N 32°05' W 081°05'4 3.8
2014-Sep-23 23:28N 32°08' W 081°09'0 0.0
2014-Sep-23 22:19N 32°08' W 081°09'0 0.0
2014-Sep-23 20:16N 32°08' W 081°09'0 0.0
2014-Sep-23 14:28N 32°08' W 081°09'3 3.4
2014-Sep-23 13:33N 32°06' W 081°06'7 6.7
2014-Sep-23 12:33N 32°05' W 080°59'38410.0
2014-Sep-21 22:14N 36°39' W 075°33'1117.0
2014-Sep-21 21:33N 36°47' W 075°43'1515.1
2014-Sep-21 20:33N 36°56' W 075°59'1716.3
2014-Sep-21 19:32N 36°59' W 076°19'6 1.2
2014-Sep-21 14:28N 36°53' W 076°21'0 0.0
2014-Sep-21 09:26N 36°53' W 076°21'5 5.9
2014-Sep-21 08:32N 36°58' W 076°20'1313.6
2014-Sep-21 07:33N 36°58' W 076°04'10 9.5
2014-Sep-21 06:33N 36°53' W 075°53'1211.1
2014-Sep-21 05:31N 36°51' W 075°39'0 0.0
2014-Sep-19 17:04N 36°51' W 075°39'162 7.1
2014-Sep-18 18:18N 39°11' W 073°55'1216.3
2014-Sep-18 17:31N 39°23' W 073°54'1516.0
2014-Sep-18 16:33N 39°39' W 073°53'2316.1
2014-Sep-18 15:08N 40°01' W 073°52'1018.0
2014-Sep-18 14:33N 40°12' W 073°50'1615.7
2014-Sep-18 13:34N 40°27' W 073°51'1515.1
2014-Sep-18 12:33N 40°39' W 074°04'4 3.6
2014-Sep-18 11:33N 40°41' W 074°08'1 0.7
2014-Sep-18 10:29N 40°41' W 074°09'18 0.9
2014-Sep-17 13:20N 40°28' W 073°52'4 4.8
2014-Sep-17 12:29N 40°29' W 073°47'0 0.0
2014-Sep-17 11:32N 40°29' W 073°47'0 0.0
2014-Sep-17 10:31N 40°29' W 073°47'0 0.0
2014-Sep-17 09:19N 40°29' W 073°47'3 1.0
2014-Sep-17 06:33N 40°28' W 073°44'1413.3
2014-Sep-17 05:31N 40°28' W 073°25'1313.6
2014-Sep-17 04:33N 40°30' W 073°08'1413.8
2014-Sep-17 03:33N 40°30' W 072°50'1613.6
2014-Sep-17 02:24N 40°31' W 072°29'1113.6
2014-Sep-17 01:33N 40°31' W 072°14'1413.7
2014-Sep-17 00:33N 40°31' W 071°56'1413.3
2014-Sep-16 23:31N 40°32' W 071°38'1413.5
2014-Sep-16 22:31N 40°32' W 071°20'1413.6
2014-Sep-16 21:27N 40°32' W 071°01'9 7.0
2014-Sep-16 20:08N 40°33' W 070°49'711.9
2014-Sep-16 19:32N 40°33' W 070°40'1513.3
2014-Sep-16 18:24N 40°33' W 070°20'1113.0
2014-Sep-16 17:32N 40°34' W 070°05'1313.5
2014-Sep-16 16:33N 40°34' W 069°48'1413.8
2014-Sep-16 15:33N 40°34' W 069°30'1413.8
2014-Sep-16 14:32N 40°35' W 069°11'1413.6
2014-Sep-16 13:31N 40°33' W 068°53'1313.3
2014-Sep-16 12:33N 40°32' W 068°36'  

Dump ship's entire track history